Angoon, Alaska
Current Conditions -  °F | °C
As of 12:09 AM on Sunday 21 Dec 2014 (Local Time) from PAGN Reporting Station
Light Rain Light Rain  
Wind Chill: 33°   Ceiling: 3200
Heat Index: 37°   Visibility: 9mi
Dew Point: 37°   Wind: 6mph
Humidity: 100%   Direction: 70°ENE
Pressure: 29.16"   Gusts: NA
Location:  57.5°N, 134.59°W
Report Text: PAGN 210909Z AUTO 07005KT 9SM -RA FEW004 BKN032 OVC080 03/03 A2916 RMK AO2 TSNO BKN V SCT P0000 $
Loading
Personal Weather Stations






























Interactive Weather Map New forecast layout! Learn more

10-Day Weather Forecast

Advertisements
Track Severe Weather on mobile